createdAt,value
2023-02-15T00:00:39.773Z,16.93
2023-02-15T00:03:08.989Z,15.97
2023-02-15T00:05:36.865Z,16.83
2023-02-15T00:08:04.842Z,17.03
2023-02-15T00:10:32.712Z,15.27
2023-02-15T00:13:02.126Z,16.80
2023-02-15T00:15:29.970Z,17.57
2023-02-15T00:17:59.689Z,16.80
2023-02-15T00:20:29.321Z,14.37
2023-02-15T00:22:57.196Z,11.87
2023-02-15T00:25:25.317Z,14.50
2023-02-15T00:27:53.217Z,16.83
2023-02-15T00:30:21.107Z,15.30
2023-02-15T00:32:50.048Z,16.63
2023-02-15T00:35:18.227Z,14.80
2023-02-15T00:37:47.488Z,15.47
2023-02-15T00:40:15.500Z,16.13
2023-02-15T00:42:43.606Z,16.90
2023-02-15T00:45:11.708Z,16.00
2023-02-15T00:47:39.643Z,17.47
2023-02-15T00:50:08.660Z,18.97
2023-02-15T00:52:36.561Z,16.53
2023-02-15T00:55:06.342Z,15.50
2023-02-15T00:57:34.187Z,15.67
2023-02-15T01:00:01.999Z,12.97
2023-02-15T01:02:29.872Z,15.87
2023-02-15T01:04:57.676Z,14.37
2023-02-15T01:07:25.586Z,17.13
2023-02-15T01:09:53.466Z,13.33
2023-02-15T01:12:22.708Z,15.27
2023-02-15T01:14:50.560Z,16.30
2023-02-15T01:17:18.444Z,15.50
2023-02-15T01:19:46.417Z,18.77
2023-02-15T01:22:14.283Z,13.90
2023-02-15T01:24:42.183Z,15.70
2023-02-15T01:27:10.012Z,14.47
2023-02-15T01:29:39.222Z,14.50
2023-02-15T01:32:07.142Z,15.23
2023-02-15T01:34:35.360Z,16.23
2023-02-15T01:37:03.552Z,15.87
2023-02-15T01:39:31.370Z,17.00
2023-02-15T01:41:59.191Z,15.90
2023-02-15T01:44:51.484Z,16.07
2023-02-15T01:47:24.269Z,14.90
2023-02-15T01:50:00.677Z,13.83
2023-02-15T01:52:28.684Z,14.77
2023-02-15T01:54:56.623Z,14.07
2023-02-15T01:57:28.774Z,14.27
2023-02-15T02:00:03.427Z,16.13
2023-02-15T02:02:31.546Z,13.30
2023-02-15T02:05:04.167Z,15.00
2023-02-15T02:07:35.382Z,15.30
2023-02-15T02:10:04.082Z,16.50
2023-02-15T02:12:32.196Z,14.27
2023-02-15T02:15:01.714Z,17.27
2023-02-15T02:17:39.885Z,15.47
2023-02-15T02:20:28.819Z,14.00
2023-02-15T02:23:20.270Z,15.07
2023-02-15T02:26:26.293Z,13.80
2023-02-15T02:29:29.610Z,15.57
2023-02-15T02:32:32.454Z,16.47
2023-02-15T02:35:07.714Z,13.23
2023-02-15T02:37:44.777Z,13.80
2023-02-15T02:40:18.725Z,15.00
2023-02-15T02:42:53.408Z,12.83
2023-02-15T02:45:30.505Z,12.77
2023-02-15T02:48:03.505Z,13.90
2023-02-15T02:50:33.002Z,15.10
2023-02-15T02:53:01.501Z,11.93
2023-02-15T02:55:33.460Z,14.20
2023-02-15T02:58:07.690Z,13.90
2023-02-15T03:00:41.972Z,13.53
2023-02-15T03:03:16.109Z,15.20
2023-02-15T03:05:49.592Z,12.97
2023-02-15T03:08:22.887Z,14.30
2023-02-15T03:10:53.728Z,12.30
2023-02-15T03:13:22.231Z,13.63
2023-02-15T03:16:09.583Z,13.87
2023-02-15T03:18:43.107Z,14.53
2023-02-15T03:21:23.216Z,13.63
2023-02-15T03:23:55.224Z,12.17
2023-02-15T03:26:25.133Z,13.47
2023-02-15T03:28:57.226Z,11.63
2023-02-15T03:31:29.967Z,13.77
2023-02-15T03:34:03.460Z,12.90
2023-02-15T03:36:40.791Z,13.50
2023-02-15T03:39:15.745Z,13.10
2023-02-15T03:41:50.541Z,12.13
2023-02-15T03:44:25.792Z,12.03
2023-02-15T03:46:58.617Z,12.33
2023-02-15T03:49:31.755Z,13.10
2023-02-15T03:52:02.657Z,11.60
2023-02-15T03:54:44.267Z,13.10
2023-02-15T03:57:33.753Z,13.60
2023-02-15T04:00:21.476Z,12.77
2023-02-15T04:03:07.916Z,12.80
2023-02-15T04:05:36.371Z,12.43
2023-02-15T04:08:06.211Z,13.70
2023-02-15T04:10:51.653Z,12.60
2023-02-15T04:13:19.496Z,11.73
2023-02-15T04:16:05.552Z,12.10
2023-02-15T04:18:53.043Z,12.43
2023-02-15T04:21:39.348Z,13.57
2023-02-15T04:24:26.294Z,11.53
2023-02-15T04:26:54.623Z,11.70
2023-02-15T04:29:23.080Z,11.53
2023-02-15T04:31:51.656Z,12.27
2023-02-15T04:34:19.751Z,12.67
2023-02-15T04:36:47.698Z,12.97
2023-02-15T04:39:18.014Z,15.90
2023-02-15T04:41:46.633Z,11.90
2023-02-15T04:44:14.677Z,13.33
2023-02-15T04:46:42.568Z,15.13
2023-02-15T04:49:10.885Z,12.40
2023-02-15T04:51:39.202Z,12.97
2023-02-15T04:54:07.142Z,13.33
2023-02-15T04:56:38.764Z,11.67
2023-02-15T04:59:07.150Z,13.53
2023-02-15T05:01:35.074Z,16.20
2023-02-15T05:04:03.680Z,12.40
2023-02-15T05:06:31.837Z,11.73
2023-02-15T05:09:00.443Z,14.77
2023-02-15T05:11:28.555Z,11.47
2023-02-15T05:13:57.825Z,13.70
2023-02-15T05:16:26.577Z,12.47
2023-02-15T05:18:54.424Z,15.30
2023-02-15T05:21:22.652Z,14.43
2023-02-15T05:23:50.605Z,13.77
2023-02-15T05:26:38.092Z,11.97
2023-02-15T05:29:07.678Z,14.23
2023-02-15T05:31:36.208Z,13.53
2023-02-15T05:34:04.582Z,14.37
2023-02-15T05:36:32.408Z,14.40
2023-02-15T05:39:00.439Z,14.17
2023-02-15T05:41:28.270Z,14.80
2023-02-15T05:43:57.380Z,15.17
2023-02-15T05:46:26.711Z,14.53
2023-02-15T05:48:54.570Z,14.87
2023-02-15T05:51:22.413Z,11.87
2023-02-15T05:53:50.329Z,11.77
2023-02-15T05:56:18.406Z,15.10
2023-02-15T05:58:46.507Z,12.63
2023-02-15T06:01:16.677Z,14.60
2023-02-15T06:03:46.362Z,12.47
2023-02-15T06:06:14.657Z,12.03
2023-02-15T06:08:42.925Z,11.40
2023-02-15T06:11:11.212Z,12.43
2023-02-15T06:13:39.306Z,14.73
2023-02-15T06:16:07.766Z,13.30
2023-02-15T06:18:35.857Z,13.10
2023-02-15T06:21:05.411Z,13.07
2023-02-15T06:23:33.330Z,12.23
2023-02-15T06:26:01.601Z,11.57
2023-02-15T06:28:29.612Z,12.63
2023-02-15T06:30:57.559Z,13.57
2023-02-15T06:33:26.190Z,12.77
2023-02-15T06:35:54.038Z,11.70
2023-02-15T06:38:23.258Z,11.30
2023-02-15T06:40:51.074Z,12.93
2023-02-15T06:43:18.959Z,11.23
2023-02-15T06:45:47.162Z,12.97
2023-02-15T06:48:15.344Z,13.77
2023-02-15T06:50:43.268Z,12.47
2023-02-15T06:53:11.333Z,11.13
2023-02-15T06:55:40.575Z,12.93
2023-02-15T06:58:08.407Z,11.17
2023-02-15T07:00:36.272Z,12.27
2023-02-15T07:03:04.175Z,10.23
2023-02-15T07:05:35.945Z,10.87
2023-02-15T07:08:03.970Z,11.87
2023-02-15T07:10:32.362Z,11.60
2023-02-15T07:13:00.667Z,13.80
2023-02-15T07:15:28.525Z,12.03
2023-02-15T07:17:56.430Z,11.60
2023-02-15T07:20:25.732Z,10.90
2023-02-15T07:22:54.331Z,10.93
2023-02-15T07:25:22.618Z,10.30
2023-02-15T07:27:50.509Z,12.83
2023-02-15T07:30:21.035Z,13.13
2023-02-15T07:33:11.400Z,9.50
2023-02-15T07:35:39.260Z,10.80
2023-02-15T07:38:07.215Z,10.50
2023-02-15T07:40:35.066Z,13.67
2023-02-15T07:43:02.939Z,10.10
2023-02-15T07:45:32.780Z,12.83
2023-02-15T07:48:02.371Z,14.00
2023-02-15T07:50:30.383Z,10.90
2023-02-15T07:52:58.420Z,10.40
2023-02-15T07:55:26.694Z,10.97
2023-02-15T07:57:55.059Z,9.80
2023-02-15T08:00:25.839Z,11.17
2023-02-15T08:03:10.683Z,11.27
2023-02-15T08:05:39.108Z,11.37
2023-02-15T08:08:07.340Z,10.43
2023-02-15T08:10:52.621Z,8.07
2023-02-15T08:13:20.485Z,9.83
2023-02-15T08:15:52.413Z,12.13
2023-02-15T08:18:21.698Z,10.43
2023-02-15T08:20:51.966Z,12.20
2023-02-15T08:23:23.441Z,13.37
2023-02-15T08:25:51.268Z,16.73
2023-02-15T08:28:19.146Z,23.37
2023-02-15T08:30:47.219Z,10.40
2023-02-15T08:33:15.226Z,9.27
2023-02-15T08:35:44.472Z,7.40
2023-02-15T08:38:12.353Z,9.53
2023-02-15T08:40:40.267Z,10.83
2023-02-15T08:43:08.275Z,11.87
2023-02-15T08:45:36.263Z,9.50
2023-02-15T08:48:04.209Z,12.43
2023-02-15T08:50:32.104Z,9.93
2023-02-15T08:53:01.332Z,10.03
2023-02-15T08:55:29.158Z,9.57
2023-02-15T08:57:57.138Z,19.40
2023-02-15T09:00:26.140Z,13.17
2023-02-15T09:02:54.305Z,12.57
2023-02-15T09:05:22.246Z,9.90
2023-02-15T09:07:50.114Z,11.20
2023-02-15T09:10:19.747Z,11.33
2023-02-15T09:12:47.739Z,7.53
2023-02-15T09:15:15.864Z,10.00
2023-02-15T09:17:43.786Z,11.50
2023-02-15T09:20:12.082Z,9.17
2023-02-15T09:22:39.925Z,8.00
2023-02-15T09:25:08.189Z,9.53
2023-02-15T09:27:37.820Z,7.87
2023-02-15T09:30:06.380Z,8.90
2023-02-15T09:32:34.309Z,7.93
2023-02-15T09:35:02.222Z,8.47
2023-02-15T09:37:30.131Z,9.33
2023-02-15T09:40:00.795Z,10.03
2023-02-15T09:43:02.296Z,10.30
2023-02-15T09:45:59.870Z,7.57
2023-02-15T09:48:40.993Z,9.97
2023-02-15T09:51:30.646Z,8.77
2023-02-15T09:54:12.189Z,10.93
2023-02-15T09:56:44.296Z,10.40
2023-02-15T09:59:21.615Z,9.30
2023-02-15T10:02:04.879Z,9.17
2023-02-15T10:04:48.303Z,10.47
2023-02-15T10:07:35.630Z,9.50
2023-02-15T10:10:22.337Z,9.87
2023-02-15T10:13:11.154Z,10.60
2023-02-15T10:15:59.698Z,9.70
2023-02-15T10:18:46.072Z,9.73
2023-02-15T10:21:24.223Z,10.43
2023-02-15T10:24:09.793Z,9.10
2023-02-15T10:26:45.201Z,10.37
2023-02-15T10:29:30.154Z,7.93
2023-02-15T10:32:07.950Z,9.80
2023-02-15T10:34:41.149Z,10.73
2023-02-15T10:37:30.446Z,10.03
2023-02-15T10:40:09.284Z,7.83
2023-02-15T10:42:52.366Z,11.67
2023-02-15T10:45:31.140Z,10.23
2023-02-15T10:48:18.703Z,10.30
2023-02-15T10:50:51.605Z,11.13
2023-02-15T10:53:31.401Z,8.70
2023-02-15T10:56:07.347Z,11.13
2023-02-15T10:58:49.622Z,12.57
2023-02-15T11:01:24.439Z,10.53
2023-02-15T11:04:13.709Z,10.87
2023-02-15T11:06:49.343Z,10.90
2023-02-15T11:09:22.843Z,12.27
2023-02-15T11:11:54.132Z,9.03
2023-02-15T11:14:40.998Z,9.37
2023-02-15T11:17:14.392Z,10.93
2023-02-15T11:19:49.200Z,10.87
2023-02-15T11:22:18.164Z,12.43
2023-02-15T11:24:49.479Z,10.90
2023-02-15T11:27:23.716Z,11.77
2023-02-15T11:30:00.205Z,10.70
2023-02-15T11:32:30.480Z,9.40
2023-02-15T11:35:02.947Z,11.50
2023-02-15T11:37:38.079Z,12.10
2023-02-15T11:40:23.256Z,11.97
2023-02-15T11:42:53.473Z,11.13
2023-02-15T11:45:27.622Z,10.90
2023-02-15T11:47:55.963Z,10.73
2023-02-15T11:50:26.379Z,11.47
2023-02-15T11:52:57.949Z,11.57
2023-02-15T11:55:29.567Z,11.03
2023-02-15T11:58:03.751Z,10.13
2023-02-15T12:00:38.383Z,11.80
2023-02-15T12:03:15.239Z,15.00
2023-02-15T12:05:46.586Z,11.70
2023-02-15T12:08:24.167Z,13.77
2023-02-15T12:11:03.636Z,13.10
2023-02-15T12:13:32.172Z,10.00
2023-02-15T12:16:09.331Z,12.20
2023-02-15T12:18:41.258Z,12.43
2023-02-15T12:21:12.894Z,8.70
2023-02-15T12:23:46.100Z,11.60
2023-02-15T12:26:15.496Z,10.57
2023-02-15T12:28:46.835Z,9.53
2023-02-15T12:31:23.701Z,9.93
2023-02-15T12:33:55.105Z,10.77
2023-02-15T12:36:27.771Z,11.90
2023-02-15T12:39:07.282Z,11.07
2023-02-15T12:41:36.512Z,11.73
2023-02-15T12:44:19.534Z,10.80
2023-02-15T12:46:59.179Z,14.37
2023-02-15T12:49:28.221Z,13.80
2023-02-15T12:51:59.010Z,11.20
2023-02-15T12:54:36.914Z,10.70
2023-02-15T12:57:22.693Z,15.13
2023-02-15T12:59:52.865Z,11.67
2023-02-15T13:02:26.817Z,11.80
2023-02-15T13:04:55.995Z,11.87
2023-02-15T13:07:24.453Z,12.10
2023-02-15T13:09:52.583Z,10.73
2023-02-15T13:12:27.503Z,10.77
2023-02-15T13:14:57.538Z,12.83
2023-02-15T13:17:30.750Z,9.13
2023-02-15T13:20:02.900Z,11.77
2023-02-15T13:22:40.299Z,13.73
2023-02-15T13:25:15.316Z,10.33
2023-02-15T13:27:47.506Z,12.43
2023-02-15T13:30:27.087Z,10.50
2023-02-15T13:32:58.602Z,12.63
2023-02-15T13:35:31.393Z,11.17
2023-02-15T13:38:13.336Z,11.93
2023-02-15T13:40:50.870Z,10.70
2023-02-15T13:43:36.318Z,9.93
2023-02-15T13:46:18.460Z,11.85
2023-02-15T13:48:54.169Z,10.07
2023-02-15T13:51:27.312Z,10.73
2023-02-15T13:54:13.942Z,10.73
2023-02-15T13:56:53.675Z,11.27
2023-02-15T13:59:46.755Z,13.37
2023-02-15T14:02:43.740Z,12.60
2023-02-15T14:05:30.235Z,12.60
2023-02-15T14:08:08.540Z,12.30
2023-02-15T14:10:46.183Z,12.20
2023-02-15T14:13:47.425Z,12.03
2023-02-15T14:16:23.154Z,13.87
2023-02-15T14:18:56.687Z,12.63
2023-02-15T14:21:32.550Z,8.27
2023-02-15T14:24:17.262Z,11.23
2023-02-15T14:26:52.816Z,10.27
2023-02-15T14:29:31.433Z,11.43
2023-02-15T14:32:06.496Z,13.63
2023-02-15T14:34:52.471Z,11.57
2023-02-15T14:37:26.919Z,11.13
2023-02-15T14:40:17.916Z,11.93
2023-02-15T14:42:50.663Z,12.60
2023-02-15T14:45:24.945Z,13.70
2023-02-15T14:48:06.274Z,10.57
2023-02-15T14:50:46.212Z,13.40
2023-02-15T14:53:36.962Z,12.57
2023-02-15T14:56:18.483Z,12.50
2023-02-15T14:58:59.904Z,12.13
2023-02-15T15:01:29.924Z,13.33
2023-02-15T15:04:02.227Z,13.70
2023-02-15T15:06:32.709Z,11.97
2023-02-15T15:09:03.407Z,10.87
2023-02-15T15:11:46.376Z,10.83
2023-02-15T15:14:42.379Z,12.90
2023-02-15T15:17:14.024Z,11.50
2023-02-15T15:20:13.990Z,13.00
2023-02-15T15:22:43.628Z,11.17
2023-02-15T15:25:34.029Z,13.20
2023-02-15T15:28:02.001Z,9.10
2023-02-15T15:31:07.039Z,14.07
2023-02-15T15:34:07.743Z,13.30
2023-02-15T15:37:02.366Z,11.03
2023-02-15T15:39:59.272Z,11.73
2023-02-15T15:42:40.146Z,14.73
2023-02-15T15:45:33.997Z,13.70
2023-02-15T15:48:17.702Z,17.27
2023-02-15T15:50:45.795Z,13.87
2023-02-15T15:53:22.722Z,12.47
2023-02-15T15:55:55.156Z,11.10
2023-02-15T15:58:23.837Z,15.00
2023-02-15T16:00:55.667Z,15.00
2023-02-15T16:03:25.488Z,15.43
2023-02-15T16:05:56.336Z,15.33
2023-02-15T16:08:34.053Z,14.80
2023-02-15T16:11:13.753Z,15.80
2023-02-15T16:13:43.001Z,16.40
2023-02-15T16:16:13.744Z,16.00
2023-02-15T16:18:43.575Z,17.23
2023-02-15T16:21:19.391Z,14.43
2023-02-15T16:24:10.665Z,15.57
2023-02-15T16:27:03.112Z,13.03
2023-02-15T16:29:33.118Z,14.53
2023-02-15T16:32:02.780Z,15.37
2023-02-15T16:34:33.522Z,13.30
2023-02-15T16:37:22.817Z,15.20
2023-02-15T16:39:52.685Z,13.13
2023-02-15T16:42:20.892Z,13.33
2023-02-15T16:44:53.492Z,14.07
2023-02-15T16:47:26.253Z,17.60
2023-02-15T16:49:56.800Z,14.37
2023-02-15T16:52:27.276Z,13.33
2023-02-15T16:55:00.139Z,17.83
2023-02-15T16:57:30.924Z,13.43
2023-02-15T17:00:04.290Z,15.23
2023-02-15T17:02:55.494Z,14.07
2023-02-15T17:05:22.660Z,15.37
2023-02-15T17:08:09.152Z,13.93
2023-02-15T17:10:42.616Z,14.93
2023-02-15T17:13:13.392Z,13.80
2023-02-15T17:15:42.889Z,15.13
2023-02-15T17:18:17.493Z,14.93
2023-02-15T17:20:46.767Z,14.47
2023-02-15T17:23:27.948Z,15.40
2023-02-15T17:25:57.949Z,14.77
2023-02-15T17:28:27.575Z,13.40
2023-02-15T17:30:57.034Z,15.10
2023-02-15T17:33:30.125Z,15.90
2023-02-15T17:36:07.245Z,15.50
2023-02-15T17:38:35.319Z,14.23
2023-02-15T17:41:05.001Z,14.50
2023-02-15T17:43:33.404Z,14.83
2023-02-15T17:46:01.555Z,20.43
2023-02-15T17:48:33.916Z,20.90
2023-02-15T17:51:03.978Z,16.73
2023-02-15T17:53:32.565Z,16.00
2023-02-15T17:55:59.698Z,17.03
2023-02-15T17:58:29.120Z,15.90
2023-02-15T18:01:17.233Z,15.80
2023-02-15T18:04:05.242Z,16.20
2023-02-15T18:06:53.606Z,14.83
2023-02-15T18:09:41.175Z,17.80
2023-02-15T18:12:20.637Z,20.20
2023-02-15T18:14:50.352Z,17.23
2023-02-15T18:17:19.262Z,14.33
2023-02-15T18:19:47.950Z,14.97
2023-02-15T18:22:18.714Z,15.00
2023-02-15T18:24:48.163Z,15.70
2023-02-15T18:27:17.406Z,16.23
2023-02-15T18:29:45.867Z,16.80
2023-02-15T18:32:20.957Z,16.20
2023-02-15T18:34:50.475Z,14.20
2023-02-15T18:37:21.375Z,15.13
2023-02-15T18:39:54.353Z,14.97
2023-02-15T18:42:28.609Z,14.30
2023-02-15T18:44:58.165Z,13.93
2023-02-15T18:47:28.584Z,12.37
2023-02-15T18:49:56.742Z,13.40
2023-02-15T18:52:27.561Z,16.37
2023-02-15T18:55:04.422Z,13.73
2023-02-15T18:57:33.805Z,16.00
2023-02-15T19:00:01.891Z,15.30
2023-02-15T19:02:31.314Z,15.47
2023-02-15T19:04:59.178Z,12.87
2023-02-15T19:07:29.838Z,13.37
2023-02-15T19:10:00.349Z,12.90
2023-02-15T19:12:29.636Z,13.47
2023-02-15T19:14:57.762Z,13.20
2023-02-15T19:17:25.795Z,13.07
2023-02-15T19:19:55.122Z,12.50
2023-02-15T19:22:27.434Z,13.43
2023-02-15T19:24:57.012Z,15.00
2023-02-15T19:27:28.694Z,12.70
2023-02-15T19:29:59.520Z,13.63
2023-02-15T19:32:27.913Z,15.20
2023-02-15T19:34:57.529Z,12.43
2023-02-15T19:37:34.280Z,13.47
2023-02-15T19:40:02.491Z,13.03
2023-02-15T19:42:32.239Z,12.43
2023-02-15T19:45:00.108Z,13.80
2023-02-15T19:47:29.070Z,13.53
2023-02-15T19:50:03.605Z,14.30
2023-02-15T19:52:31.629Z,14.23
2023-02-15T19:54:59.531Z,12.33
2023-02-15T19:57:28.963Z,18.27
2023-02-15T19:59:56.849Z,16.67
2023-02-15T20:02:24.698Z,18.30
2023-02-15T20:04:52.694Z,15.63
2023-02-15T20:07:26.782Z,17.57
2023-02-15T20:09:54.897Z,15.97
2023-02-15T20:12:25.009Z,16.57
2023-02-15T20:14:53.338Z,17.23
2023-02-15T20:17:21.244Z,16.90
2023-02-15T20:19:49.639Z,15.80
2023-02-15T20:22:25.446Z,15.90
2023-02-15T20:24:55.631Z,14.83
2023-02-15T20:27:24.284Z,16.37
2023-02-15T20:29:52.320Z,16.97
2023-02-15T20:32:20.423Z,14.53
2023-02-15T20:34:48.337Z,15.60
2023-02-15T20:37:26.312Z,17.97
2023-02-15T20:39:54.310Z,16.83
2023-02-15T20:42:22.436Z,14.63
2023-02-15T20:44:50.401Z,17.67
2023-02-15T20:47:18.473Z,19.10
2023-02-15T20:49:46.343Z,16.80
2023-02-15T20:52:20.458Z,54.70
2023-02-15T20:54:49.808Z,18.20
2023-02-15T20:57:17.772Z,19.43
2023-02-15T20:59:46.086Z,22.30
2023-02-15T21:02:18.922Z,20.57
2023-02-15T21:04:47.154Z,20.50
2023-02-15T21:07:16.670Z,22.87
2023-02-15T21:09:44.536Z,23.93
2023-02-15T21:12:16.533Z,22.63
2023-02-15T21:14:45.026Z,25.23
2023-02-15T21:17:13.683Z,24.83
2023-02-15T21:19:41.675Z,22.83
2023-02-15T21:22:13.063Z,25.37
2023-02-15T21:24:45.569Z,24.73
2023-02-15T21:27:15.029Z,25.70
2023-02-15T21:29:42.872Z,26.67
2023-02-15T21:32:11.535Z,24.07
2023-02-15T21:34:40.007Z,25.97
2023-02-15T21:37:27.409Z,24.53
2023-02-15T21:39:55.354Z,27.27
2023-02-15T21:42:42.216Z,24.10
2023-02-15T21:45:33.712Z,23.30
2023-02-15T21:48:01.731Z,22.80
2023-02-15T21:50:46.996Z,22.63
2023-02-15T21:53:21.267Z,24.40
2023-02-15T21:55:49.823Z,23.80
2023-02-15T21:58:21.732Z,24.73
2023-02-15T22:00:50.439Z,28.10
2023-02-15T22:03:18.417Z,24.50
2023-02-15T22:05:46.432Z,28.43
2023-02-15T22:08:15.313Z,23.63
2023-02-15T22:10:44.310Z,25.90
2023-02-15T22:13:16.280Z,26.70
2023-02-15T22:15:47.668Z,23.27
2023-02-15T22:18:25.007Z,24.67
2023-02-15T22:20:53.729Z,23.63
2023-02-15T22:23:21.835Z,22.17
2023-02-15T22:25:55.353Z,26.57
2023-02-15T22:28:28.465Z,22.23
2023-02-15T22:30:58.650Z,23.87
2023-02-15T22:33:28.606Z,23.13
2023-02-15T22:35:56.923Z,22.27
2023-02-15T22:38:25.165Z,21.90
2023-02-15T22:40:56.591Z,24.37
2023-02-15T22:43:34.517Z,21.17
2023-02-15T22:46:06.541Z,21.50
2023-02-15T22:48:35.426Z,21.80
2023-02-15T22:51:03.694Z,20.77
2023-02-15T22:53:31.650Z,24.13
2023-02-15T22:56:04.547Z,20.90
2023-02-15T22:58:32.452Z,23.57
2023-02-15T23:01:03.711Z,23.37
2023-02-15T23:03:33.494Z,24.33
2023-02-15T23:06:01.524Z,24.63
2023-02-15T23:08:29.345Z,24.80
2023-02-15T23:35:22.012Z,22.87
2023-02-15T23:37:49.891Z,25.37
2023-02-15T23:40:36.561Z,24.03
2023-02-15T23:43:04.612Z,22.97
2023-02-15T23:45:36.268Z,23.53
2023-02-15T23:48:21.898Z,25.80
2023-02-15T23:50:51.155Z,24.57
2023-02-15T23:53:18.987Z,24.47
2023-02-15T23:55:47.089Z,23.10
2023-02-15T23:58:18.483Z,20.87
